LGAD/PYR METAR and TAF weather

Enter ICAO airport designator
Station Type Date Time Source
LGAD METAR 2021/01/17 17:50 UTC NOAA

LGAD 171750Z 10004KT 9999 SCT025 05/00 Q1016


Station Type Date Time Source
LGAD Decoded METAR 2021/01/17 17:50 UTC NOAA

Andravida Airport , Greece (LGAD) 37-55N 021-17E 14M
Jan 17, 2021 - 12:50 PM EST / 2021.01.17 1750 UTC
Wind: from the E (100 degrees) at 5 MPH (4 KT):0
Visibility: greater than 7 mile(s):0
Sky conditions: partly cloudy
Temperature: 41 F (5 C)
Dew Point: 32 F (0 C)
Relative Humidity: 70%
Pressure (altimeter): 30.00 in. Hg (1016 hPa)
ob: LGAD 171750Z 10004KT 9999 SCT025 05/00 Q1016
cycle: 18

Station Type Date Time Source
LGAD TAF 2020/03/18 09:39 UTC NOAA

TAF TAF LGAD 180800Z 1809/1821 30006KT 9999 FEW030
BECMG 1816/1818 07010KT

Example: see airport list